sensor_id;sensor_type;location;lat;lon;timestamp;P1;durP1;ratioP1;P2;durP2;ratioP2
789;SDS011;378;48.844;9.156;2023-01-24T00:00:11;25.43;;;12.57;;
789;SDS011;378;48.844;9.156;2023-01-24T00:02:40;28.38;;;16.35;;
789;SDS011;378;48.844;9.156;2023-01-24T00:05:07;27.07;;;14.23;;
789;SDS011;378;48.844;9.156;2023-01-24T00:07:34;27.47;;;13.77;;
789;SDS011;378;48.844;9.156;2023-01-24T00:10:00;25.50;;;12.93;;
789;SDS011;378;48.844;9.156;2023-01-24T00:12:28;29.95;;;16.10;;
789;SDS011;378;48.844;9.156;2023-01-24T00:14:54;26.63;;;13.63;;
789;SDS011;378;48.844;9.156;2023-01-24T00:17:23;27.80;;;13.60;;
789;SDS011;378;48.844;9.156;2023-01-24T00:19:51;25.73;;;13.17;;
789;SDS011;378;48.844;9.156;2023-01-24T00:22:18;24.97;;;13.27;;
789;SDS011;378;48.844;9.156;2023-01-24T00:24:45;26.40;;;12.90;;
789;SDS011;378;48.844;9.156;2023-01-24T00:27:13;27.17;;;14.07;;
789;SDS011;378;48.844;9.156;2023-01-24T00:29:40;26.13;;;13.30;;
789;SDS011;378;48.844;9.156;2023-01-24T00:32:07;26.30;;;12.50;;
789;SDS011;378;48.844;9.156;2023-01-24T00:34:34;27.03;;;12.97;;
789;SDS011;378;48.844;9.156;2023-01-24T00:37:03;27.03;;;12.23;;
789;SDS011;378;48.844;9.156;2023-01-24T00:39:29;25.97;;;13.07;;
789;SDS011;378;48.844;9.156;2023-01-24T00:41:56;28.40;;;13.30;;
789;SDS011;378;48.844;9.156;2023-01-24T00:44:23;30.23;;;16.43;;
789;SDS011;378;48.844;9.156;2023-01-24T00:46:50;26.30;;;12.67;;
789;SDS011;378;48.844;9.156;2023-01-24T00:49:17;28.38;;;14.30;;
789;SDS011;378;48.844;9.156;2023-01-24T00:51:44;29.20;;;13.37;;
789;SDS011;378;48.844;9.156;2023-01-24T00:54:12;28.10;;;13.47;;
789;SDS011;378;48.844;9.156;2023-01-24T00:56:39;29.92;;;13.75;;
789;SDS011;378;48.844;9.156;2023-01-24T00:59:06;27.43;;;13.10;;
789;SDS011;378;48.844;9.156;2023-01-24T01:01:33;29.70;;;14.47;;
789;SDS011;378;48.844;9.156;2023-01-24T01:03:59;28.33;;;13.80;;
789;SDS011;378;48.844;9.156;2023-01-24T01:06:26;25.40;;;13.07;;
789;SDS011;378;48.844;9.156;2023-01-24T01:08:53;29.48;;;14.13;;
789;SDS011;378;48.844;9.156;2023-01-24T01:11:21;29.27;;;13.73;;
789;SDS011;378;48.844;9.156;2023-01-24T01:13:48;29.57;;;14.10;;
789;SDS011;378;48.844;9.156;2023-01-24T01:16:16;26.80;;;13.63;;
789;SDS011;378;48.844;9.156;2023-01-24T01:18:45;30.23;;;14.00;;
789;SDS011;378;48.844;9.156;2023-01-24T01:21:13;31.33;;;14.07;;
789;SDS011;378;48.844;9.156;2023-01-24T01:23:42;31.60;;;16.02;;
789;SDS011;378;48.844;9.156;2023-01-24T01:26:12;29.83;;;14.53;;
789;SDS011;378;48.844;9.156;2023-01-24T01:28:42;29.67;;;15.03;;
789;SDS011;378;48.844;9.156;2023-01-24T01:31:09;28.90;;;14.50;;
789;SDS011;378;48.844;9.156;2023-01-24T01:33:35;28.53;;;14.00;;
789;SDS011;378;48.844;9.156;2023-01-24T01:36:02;31.63;;;14.20;;
789;SDS011;378;48.844;9.156;2023-01-24T01:38:30;34.03;;;14.50;;
789;SDS011;378;48.844;9.156;2023-01-24T01:40:57;33.23;;;14.90;;
789;SDS011;378;48.844;9.156;2023-01-24T01:43:25;31.87;;;14.83;;
789;SDS011;378;48.844;9.156;2023-01-24T01:45:54;32.93;;;14.73;;
789;SDS011;378;48.844;9.156;2023-01-24T01:48:25;36.40;;;15.23;;
789;SDS011;378;48.844;9.156;2023-01-24T01:51:01;34.03;;;15.30;;
789;SDS011;378;48.844;9.156;2023-01-24T01:53:33;31.47;;;14.40;;
789;SDS011;378;48.844;9.156;2023-01-24T01:56:05;33.27;;;14.77;;
789;SDS011;378;48.844;9.156;2023-01-24T01:58:36;32.23;;;14.47;;
789;SDS011;378;48.844;9.156;2023-01-24T02:01:06;32.97;;;14.63;;
789;SDS011;378;48.844;9.156;2023-01-24T02:03:34;34.05;;;16.10;;
789;SDS011;378;48.844;9.156;2023-01-24T02:06:07;31.90;;;15.60;;
789;SDS011;378;48.844;9.156;2023-01-24T02:08:39;31.87;;;15.23;;
789;SDS011;378;48.844;9.156;2023-01-24T02:11:08;31.33;;;14.83;;
789;SDS011;378;48.844;9.156;2023-01-24T02:13:53;31.50;;;14.80;;
789;SDS011;378;48.844;9.156;2023-01-24T02:16:42;30.93;;;14.97;;
789;SDS011;378;48.844;9.156;2023-01-24T02:19:09;33.07;;;14.73;;
789;SDS011;378;48.844;9.156;2023-01-24T02:21:46;31.07;;;14.47;;
789;SDS011;378;48.844;9.156;2023-01-24T02:24:18;34.47;;;14.33;;
789;SDS011;378;48.844;9.156;2023-01-24T02:26:52;29.63;;;13.97;;
789;SDS011;378;48.844;9.156;2023-01-24T02:29:19;29.20;;;15.17;;
789;SDS011;378;48.844;9.156;2023-01-24T02:31:53;31.33;;;15.00;;
789;SDS011;378;48.844;9.156;2023-01-24T02:34:22;31.13;;;14.43;;
789;SDS011;378;48.844;9.156;2023-01-24T02:36:50;32.22;;;14.30;;
789;SDS011;378;48.844;9.156;2023-01-24T02:39:21;32.20;;;14.43;;
789;SDS011;378;48.844;9.156;2023-01-24T02:41:55;34.70;;;15.40;;
789;SDS011;378;48.844;9.156;2023-01-24T02:44:28;29.57;;;14.47;;
789;SDS011;378;48.844;9.156;2023-01-24T02:46:58;34.67;;;16.70;;
789;SDS011;378;48.844;9.156;2023-01-24T02:49:25;32.70;;;14.77;;
789;SDS011;378;48.844;9.156;2023-01-24T02:51:52;32.63;;;15.17;;
789;SDS011;378;48.844;9.156;2023-01-24T02:54:37;32.30;;;14.53;;
789;SDS011;378;48.844;9.156;2023-01-24T02:57:05;30.67;;;14.83;;
789;SDS011;378;48.844;9.156;2023-01-24T02:59:50;30.33;;;14.55;;
789;SDS011;378;48.844;9.156;2023-01-24T03:02:16;32.70;;;15.67;;
789;SDS011;378;48.844;9.156;2023-01-24T03:04:43;34.43;;;15.17;;
789;SDS011;378;48.844;9.156;2023-01-24T03:07:10;29.20;;;15.07;;
789;SDS011;378;48.844;9.156;2023-01-24T03:09:37;31.63;;;15.30;;
789;SDS011;378;48.844;9.156;2023-01-24T03:12:13;32.23;;;14.47;;
789;SDS011;378;48.844;9.156;2023-01-24T03:14:57;29.90;;;14.07;;
789;SDS011;378;48.844;9.156;2023-01-24T03:17:42;30.77;;;13.80;;
789;SDS011;378;48.844;9.156;2023-01-24T03:20:26;30.03;;;13.00;;
789;SDS011;378;48.844;9.156;2023-01-24T03:23:11;28.73;;;13.43;;
789;SDS011;378;48.844;9.156;2023-01-24T03:25:55;34.77;;;15.27;;
789;SDS011;378;48.844;9.156;2023-01-24T03:28:42;41.38;;;16.33;;
789;SDS011;378;48.844;9.156;2023-01-24T03:31:26;41.43;;;17.90;;
789;SDS011;378;48.844;9.156;2023-01-24T03:34:11;37.87;;;16.27;;
789;SDS011;378;48.844;9.156;2023-01-24T03:36:56;38.20;;;16.90;;
789;SDS011;378;48.844;9.156;2023-01-24T03:39:23;36.90;;;16.57;;
789;SDS011;378;48.844;9.156;2023-01-24T03:42:07;36.20;;;18.40;;
789;SDS011;378;48.844;9.156;2023-01-24T03:44:36;35.20;;;15.73;;
789;SDS011;378;48.844;9.156;2023-01-24T03:47:03;31.73;;;14.93;;
789;SDS011;378;48.844;9.156;2023-01-24T03:49:29;30.83;;;14.90;;
789;SDS011;378;48.844;9.156;2023-01-24T03:52:14;32.43;;;13.93;;
789;SDS011;378;48.844;9.156;2023-01-24T03:54:53;29.93;;;14.60;;
789;SDS011;378;48.844;9.156;2023-01-24T03:57:21;30.08;;;14.00;;
789;SDS011;378;48.844;9.156;2023-01-24T03:59:49;33.13;;;15.20;;
789;SDS011;378;48.844;9.156;2023-01-24T04:02:16;29.38;;;13.18;;
789;SDS011;378;48.844;9.156;2023-01-24T04:04:43;28.87;;;13.83;;
789;SDS011;378;48.844;9.156;2023-01-24T04:07:27;33.53;;;14.43;;
789;SDS011;378;48.844;9.156;2023-01-24T04:09:54;31.33;;;14.83;;
789;SDS011;378;48.844;9.156;2023-01-24T04:12:22;31.70;;;13.83;;
789;SDS011;378;48.844;9.156;2023-01-24T04:14:51;34.00;;;15.77;;
789;SDS011;378;48.844;9.156;2023-01-24T04:17:17;31.00;;;14.67;;
789;SDS011;378;48.844;9.156;2023-01-24T04:19:44;30.30;;;14.57;;
789;SDS011;378;48.844;9.156;2023-01-24T04:22:11;31.67;;;14.67;;
789;SDS011;378;48.844;9.156;2023-01-24T04:24:40;34.33;;;15.07;;
789;SDS011;378;48.844;9.156;2023-01-24T04:27:07;31.40;;;14.43;;
789;SDS011;378;48.844;9.156;2023-01-24T04:29:34;35.63;;;14.97;;
789;SDS011;378;48.844;9.156;2023-01-24T04:32:02;34.87;;;15.20;;
789;SDS011;378;48.844;9.156;2023-01-24T04:34:29;32.57;;;15.10;;
789;SDS011;378;48.844;9.156;2023-01-24T04:36:56;34.00;;;15.13;;
789;SDS011;378;48.844;9.156;2023-01-24T04:39:23;33.90;;;15.07;;
789;SDS011;378;48.844;9.156;2023-01-24T04:41:50;36.43;;;15.67;;
789;SDS011;378;48.844;9.156;2023-01-24T04:44:17;33.28;;;15.05;;
789;SDS011;378;48.844;9.156;2023-01-24T04:46:43;34.00;;;15.30;;
789;SDS011;378;48.844;9.156;2023-01-24T04:49:12;31.90;;;13.90;;
789;SDS011;378;48.844;9.156;2023-01-24T04:51:39;35.03;;;15.20;;
789;SDS011;378;48.844;9.156;2023-01-24T04:54:07;35.00;;;15.03;;
789;SDS011;378;48.844;9.156;2023-01-24T04:56:34;31.83;;;15.13;;
789;SDS011;378;48.844;9.156;2023-01-24T04:59:02;35.30;;;14.88;;
789;SDS011;378;48.844;9.156;2023-01-24T05:01:29;36.63;;;15.55;;
789;SDS011;378;48.844;9.156;2023-01-24T05:03:56;34.10;;;15.33;;
789;SDS011;378;48.844;9.156;2023-01-24T05:06:26;32.83;;;15.00;;
789;SDS011;378;48.844;9.156;2023-01-24T05:08:53;35.60;;;15.33;;
789;SDS011;378;48.844;9.156;2023-01-24T05:11:21;35.53;;;14.65;;
789;SDS011;378;48.844;9.156;2023-01-24T05:13:48;36.17;;;15.63;;
789;SDS011;378;48.844;9.156;2023-01-24T05:16:15;36.30;;;15.97;;
789;SDS011;378;48.844;9.156;2023-01-24T05:18:42;36.73;;;16.37;;
789;SDS011;378;48.844;9.156;2023-01-24T05:21:10;38.03;;;15.83;;
789;SDS011;378;48.844;9.156;2023-01-24T05:23:40;42.30;;;16.63;;
789;SDS011;378;48.844;9.156;2023-01-24T05:26:07;35.47;;;15.35;;
789;SDS011;378;48.844;9.156;2023-01-24T05:28:34;38.07;;;15.57;;
789;SDS011;378;48.844;9.156;2023-01-24T05:31:03;36.13;;;16.00;;
789;SDS011;378;48.844;9.156;2023-01-24T05:33:32;35.83;;;16.07;;
789;SDS011;378;48.844;9.156;2023-01-24T05:36:06;34.83;;;15.50;;
789;SDS011;378;48.844;9.156;2023-01-24T05:38:35;36.27;;;15.80;;
789;SDS011;378;48.844;9.156;2023-01-24T05:41:04;43.60;;;19.63;;
789;SDS011;378;48.844;9.156;2023-01-24T05:43:33;41.70;;;17.50;;
789;SDS011;378;48.844;9.156;2023-01-24T05:46:00;36.87;;;16.50;;
789;SDS011;378;48.844;9.156;2023-01-24T05:48:29;37.43;;;16.07;;
789;SDS011;378;48.844;9.156;2023-01-24T05:50:57;35.23;;;15.63;;
789;SDS011;378;48.844;9.156;2023-01-24T05:53:24;37.38;;;15.15;;
789;SDS011;378;48.844;9.156;2023-01-24T05:55:55;38.20;;;17.47;;
789;SDS011;378;48.844;9.156;2023-01-24T05:58:24;34.90;;;15.83;;
789;SDS011;378;48.844;9.156;2023-01-24T06:00:51;34.83;;;16.80;;
789;SDS011;378;48.844;9.156;2023-01-24T06:03:18;33.57;;;15.80;;
789;SDS011;378;48.844;9.156;2023-01-24T06:05:45;37.10;;;15.83;;
789;SDS011;378;48.844;9.156;2023-01-24T06:08:13;35.03;;;16.13;;
789;SDS011;378;48.844;9.156;2023-01-24T06:10:40;35.70;;;15.53;;
789;SDS011;378;48.844;9.156;2023-01-24T06:13:07;42.70;;;16.90;;
789;SDS011;378;48.844;9.156;2023-01-24T06:15:35;36.10;;;15.70;;
789;SDS011;378;48.844;9.156;2023-01-24T06:18:03;40.17;;;17.33;;
789;SDS011;378;48.844;9.156;2023-01-24T06:20:31;40.47;;;16.83;;
789;SDS011;378;48.844;9.156;2023-01-24T06:22:59;41.43;;;17.30;;
789;SDS011;378;48.844;9.156;2023-01-24T06:25:29;33.03;;;15.67;;
789;SDS011;378;48.844;9.156;2023-01-24T06:27:56;37.80;;;15.60;;
789;SDS011;378;48.844;9.156;2023-01-24T06:30:24;36.30;;;15.27;;
789;SDS011;378;48.844;9.156;2023-01-24T06:32:56;45.93;;;21.50;;
789;SDS011;378;48.844;9.156;2023-01-24T06:35:40;36.33;;;17.30;;
789;SDS011;378;48.844;9.156;2023-01-24T06:38:15;35.85;;;15.68;;
789;SDS011;378;48.844;9.156;2023-01-24T06:40:45;41.47;;;16.57;;
789;SDS011;378;48.844;9.156;2023-01-24T06:43:12;38.93;;;16.90;;
789;SDS011;378;48.844;9.156;2023-01-24T06:45:39;38.80;;;16.50;;
789;SDS011;378;48.844;9.156;2023-01-24T06:48:08;40.83;;;16.33;;
789;SDS011;378;48.844;9.156;2023-01-24T06:50:35;38.90;;;16.37;;
789;SDS011;378;48.844;9.156;2023-01-24T06:53:02;40.97;;;16.93;;
789;SDS011;378;48.844;9.156;2023-01-24T06:55:29;38.63;;;16.20;;
789;SDS011;378;48.844;9.156;2023-01-24T06:57:56;37.07;;;16.00;;
789;SDS011;378;48.844;9.156;2023-01-24T07:00:24;39.37;;;16.77;;
789;SDS011;378;48.844;9.156;2023-01-24T07:02:57;45.30;;;21.50;;
789;SDS011;378;48.844;9.156;2023-01-24T07:05:26;40.30;;;16.60;;
789;SDS011;378;48.844;9.156;2023-01-24T07:07:53;35.90;;;16.17;;
789;SDS011;378;48.844;9.156;2023-01-24T07:10:20;43.33;;;16.43;;
789;SDS011;378;48.844;9.156;2023-01-24T07:12:47;41.10;;;19.75;;
789;SDS011;378;48.844;9.156;2023-01-24T07:15:14;38.90;;;16.13;;
789;SDS011;378;48.844;9.156;2023-01-24T07:17:42;41.03;;;16.60;;
789;SDS011;378;48.844;9.156;2023-01-24T07:20:09;35.95;;;16.13;;
789;SDS011;378;48.844;9.156;2023-01-24T07:22:40;40.73;;;17.27;;
789;SDS011;378;48.844;9.156;2023-01-24T07:25:10;37.10;;;16.70;;
789;SDS011;378;48.844;9.156;2023-01-24T07:27:40;40.40;;;16.47;;
789;SDS011;378;48.844;9.156;2023-01-24T07:30:09;33.57;;;15.40;;
789;SDS011;378;48.844;9.156;2023-01-24T07:32:37;35.47;;;14.93;;
789;SDS011;378;48.844;9.156;2023-01-24T07:35:05;37.77;;;15.87;;
789;SDS011;378;48.844;9.156;2023-01-24T07:37:32;41.13;;;16.03;;
789;SDS011;378;48.844;9.156;2023-01-24T07:40:01;35.10;;;15.47;;
789;SDS011;378;48.844;9.156;2023-01-24T07:42:28;40.87;;;18.97;;
789;SDS011;378;48.844;9.156;2023-01-24T07:44:55;46.43;;;18.00;;
789;SDS011;378;48.844;9.156;2023-01-24T07:47:23;39.13;;;15.27;;
789;SDS011;378;48.844;9.156;2023-01-24T07:49:51;36.50;;;15.60;;
789;SDS011;378;48.844;9.156;2023-01-24T07:52:18;36.10;;;15.73;;
789;SDS011;378;48.844;9.156;2023-01-24T07:54:45;35.78;;;15.88;;
789;SDS011;378;48.844;9.156;2023-01-24T07:57:13;39.87;;;15.93;;
789;SDS011;378;48.844;9.156;2023-01-24T07:59:40;37.50;;;15.37;;
789;SDS011;378;48.844;9.156;2023-01-24T08:02:08;38.60;;;16.03;;
789;SDS011;378;48.844;9.156;2023-01-24T08:04:35;36.10;;;16.23;;
789;SDS011;378;48.844;9.156;2023-01-24T08:07:02;38.40;;;15.73;;
789;SDS011;378;48.844;9.156;2023-01-24T08:09:45;35.10;;;15.07;;
789;SDS011;378;48.844;9.156;2023-01-24T08:12:15;39.80;;;16.43;;
789;SDS011;378;48.844;9.156;2023-01-24T08:14:42;43.57;;;16.37;;
789;SDS011;378;48.844;9.156;2023-01-24T08:17:09;39.83;;;16.42;;
789;SDS011;378;48.844;9.156;2023-01-24T08:19:36;41.23;;;17.30;;
789;SDS011;378;48.844;9.156;2023-01-24T08:22:04;33.50;;;14.97;;
789;SDS011;378;48.844;9.156;2023-01-24T08:24:31;41.08;;;19.45;;
789;SDS011;378;48.844;9.156;2023-01-24T08:26:58;35.67;;;15.45;;
789;SDS011;378;48.844;9.156;2023-01-24T08:29:27;35.85;;;14.65;;
789;SDS011;378;48.844;9.156;2023-01-24T08:31:54;40.63;;;16.63;;
789;SDS011;378;48.844;9.156;2023-01-24T08:34:21;38.47;;;16.40;;
789;SDS011;378;48.844;9.156;2023-01-24T08:36:48;38.67;;;15.53;;
789;SDS011;378;48.844;9.156;2023-01-24T08:39:15;38.13;;;16.10;;
789;SDS011;378;48.844;9.156;2023-01-24T08:41:42;36.63;;;15.87;;
789;SDS011;378;48.844;9.156;2023-01-24T08:44:11;32.73;;;14.83;;
789;SDS011;378;48.844;9.156;2023-01-24T08:46:40;33.60;;;14.27;;
789;SDS011;378;48.844;9.156;2023-01-24T08:49:08;36.45;;;14.27;;
789;SDS011;378;48.844;9.156;2023-01-24T08:51:35;35.67;;;14.85;;
789;SDS011;378;48.844;9.156;2023-01-24T08:54:03;35.83;;;14.48;;
789;SDS011;378;48.844;9.156;2023-01-24T08:56:31;32.60;;;14.43;;
789;SDS011;378;48.844;9.156;2023-01-24T08:58:58;35.72;;;14.68;;
789;SDS011;378;48.844;9.156;2023-01-24T09:01:24;33.88;;;14.68;;
789;SDS011;378;48.844;9.156;2023-01-24T09:03:53;34.30;;;15.00;;
789;SDS011;378;48.844;9.156;2023-01-24T09:06:21;29.13;;;13.95;;
789;SDS011;378;48.844;9.156;2023-01-24T09:08:50;33.35;;;14.60;;
789;SDS011;378;48.844;9.156;2023-01-24T09:11:17;30.30;;;14.32;;
789;SDS011;378;48.844;9.156;2023-01-24T09:13:44;34.90;;;17.98;;
789;SDS011;378;48.844;9.156;2023-01-24T09:16:11;38.08;;;15.48;;
789;SDS011;378;48.844;9.156;2023-01-24T09:18:38;31.38;;;13.73;;
789;SDS011;378;48.844;9.156;2023-01-24T09:21:06;29.23;;;14.02;;
789;SDS011;378;48.844;9.156;2023-01-24T09:23:33;32.38;;;15.95;;
789;SDS011;378;48.844;9.156;2023-01-24T09:26:00;29.98;;;14.15;;
789;SDS011;378;48.844;9.156;2023-01-24T09:28:27;29.98;;;13.70;;
789;SDS011;378;48.844;9.156;2023-01-24T09:30:54;25.75;;;12.77;;
789;SDS011;378;48.844;9.156;2023-01-24T09:33:20;26.58;;;13.05;;
789;SDS011;378;48.844;9.156;2023-01-24T09:35:51;25.35;;;12.63;;
789;SDS011;378;48.844;9.156;2023-01-24T09:38:20;27.03;;;12.50;;
789;SDS011;378;48.844;9.156;2023-01-24T09:40:53;25.60;;;12.05;;
789;SDS011;378;48.844;9.156;2023-01-24T09:43:30;21.27;;;11.63;;
789;SDS011;378;48.844;9.156;2023-01-24T09:46:17;28.20;;;12.77;;
789;SDS011;378;48.844;9.156;2023-01-24T09:48:52;27.98;;;12.38;;
789;SDS011;378;48.844;9.156;2023-01-24T09:51:37;27.73;;;11.80;;
789;SDS011;378;48.844;9.156;2023-01-24T09:54:11;25.05;;;11.65;;
789;SDS011;378;48.844;9.156;2023-01-24T09:56:45;26.50;;;11.70;;
789;SDS011;378;48.844;9.156;2023-01-24T09:59:13;27.52;;;11.15;;
789;SDS011;378;48.844;9.156;2023-01-24T10:01:46;25.70;;;10.90;;
789;SDS011;378;48.844;9.156;2023-01-24T10:04:17;26.70;;;13.68;;
789;SDS011;378;48.844;9.156;2023-01-24T10:09:57;24.67;;;11.23;;
789;SDS011;378;48.844;9.156;2023-01-24T10:12:35;20.83;;;10.65;;
789;SDS011;378;48.844;9.156;2023-01-24T10:15:13;25.73;;;13.43;;
789;SDS011;378;48.844;9.156;2023-01-24T10:18:05;23.87;;;11.53;;
789;SDS011;378;48.844;9.156;2023-01-24T10:20:45;22.23;;;10.77;;
789;SDS011;378;48.844;9.156;2023-01-24T10:23:24;20.40;;;10.45;;
789;SDS011;378;48.844;9.156;2023-01-24T10:25:57;21.90;;;10.50;;
789;SDS011;378;48.844;9.156;2023-01-24T10:28:28;21.30;;;10.23;;
789;SDS011;378;48.844;9.156;2023-01-24T10:31:03;21.97;;;10.03;;
789;SDS011;378;48.844;9.156;2023-01-24T10:33:36;24.02;;;10.20;;
789;SDS011;378;48.844;9.156;2023-01-24T10:36:08;22.60;;;10.97;;
789;SDS011;378;48.844;9.156;2023-01-24T10:38:40;24.92;;;11.50;;
789;SDS011;378;48.844;9.156;2023-01-24T10:41:17;28.08;;;13.15;;
789;SDS011;378;48.844;9.156;2023-01-24T10:43:48;28.40;;;12.10;;
789;SDS011;378;48.844;9.156;2023-01-24T10:46:25;24.23;;;10.57;;
789;SDS011;378;48.844;9.156;2023-01-24T10:49:15;22.83;;;10.10;;
789;SDS011;378;48.844;9.156;2023-01-24T10:54:40;19.77;;;9.55;;
789;SDS011;378;48.844;9.156;2023-01-24T10:57:23;25.50;;;10.65;;
789;SDS011;378;48.844;9.156;2023-01-24T11:00:19;25.95;;;12.48;;
789;SDS011;378;48.844;9.156;2023-01-24T11:02:52;25.55;;;11.15;;
789;SDS011;378;48.844;9.156;2023-01-24T11:05:21;23.23;;;10.48;;
789;SDS011;378;48.844;9.156;2023-01-24T11:07:49;21.70;;;10.70;;
789;SDS011;378;48.844;9.156;2023-01-24T11:10:19;22.52;;;9.35;;
789;SDS011;378;48.844;9.156;2023-01-24T11:12:53;23.30;;;10.18;;
789;SDS011;378;48.844;9.156;2023-01-24T11:15:25;23.27;;;10.95;;
789;SDS011;378;48.844;9.156;2023-01-24T11:17:55;27.55;;;12.57;;
789;SDS011;378;48.844;9.156;2023-01-24T11:20:30;20.00;;;10.55;;
789;SDS011;378;48.844;9.156;2023-01-24T11:23:01;20.40;;;10.18;;
789;SDS011;378;48.844;9.156;2023-01-24T11:25:36;19.80;;;9.40;;
789;SDS011;378;48.844;9.156;2023-01-24T11:28:26;23.20;;;10.13;;
789;SDS011;378;48.844;9.156;2023-01-24T11:30:54;26.80;;;10.57;;
789;SDS011;378;48.844;9.156;2023-01-24T11:33:27;17.52;;;9.45;;
789;SDS011;378;48.844;9.156;2023-01-24T11:36:22;21.15;;;10.23;;
789;SDS011;378;48.844;9.156;2023-01-24T11:39:02;20.02;;;9.43;;
789;SDS011;378;48.844;9.156;2023-01-24T11:41:37;20.40;;;9.45;;
789;SDS011;378;48.844;9.156;2023-01-24T11:47:29;22.98;;;9.82;;
789;SDS011;378;48.844;9.156;2023-01-24T11:50:15;20.30;;;8.88;;
789;SDS011;378;48.844;9.156;2023-01-24T11:52:54;22.03;;;9.90;;
789;SDS011;378;48.844;9.156;2023-01-24T11:55:39;20.27;;;10.18;;
789;SDS011;378;48.844;9.156;2023-01-24T11:58:29;21.52;;;10.40;;
789;SDS011;378;48.844;9.156;2023-01-24T12:01:08;20.08;;;9.88;;
789;SDS011;378;48.844;9.156;2023-01-24T12:03:57;24.65;;;10.70;;
789;SDS011;378;48.844;9.156;2023-01-24T12:06:39;18.65;;;9.18;;
789;SDS011;378;48.844;9.156;2023-01-24T12:09:17;16.52;;;8.77;;
789;SDS011;378;48.844;9.156;2023-01-24T12:11:49;16.88;;;8.50;;
789;SDS011;378;48.844;9.156;2023-01-24T12:17:32;19.73;;;9.10;;
789;SDS011;378;48.844;9.156;2023-01-24T12:20:17;16.60;;;8.45;;
789;SDS011;378;48.844;9.156;2023-01-24T12:22:52;16.90;;;8.25;;
789;SDS011;378;48.844;9.156;2023-01-24T12:25:22;19.50;;;8.90;;
789;SDS011;378;48.844;9.156;2023-01-24T12:27:53;17.95;;;8.93;;
789;SDS011;378;48.844;9.156;2023-01-24T12:30:26;16.13;;;8.27;;
789;SDS011;378;48.844;9.156;2023-01-24T12:32:57;17.63;;;9.75;;
789;SDS011;378;48.844;9.156;2023-01-24T12:35:29;17.50;;;8.70;;
789;SDS011;378;48.844;9.156;2023-01-24T12:38:01;16.30;;;8.07;;
789;SDS011;378;48.844;9.156;2023-01-24T12:40:35;16.67;;;8.68;;
789;SDS011;378;48.844;9.156;2023-01-24T12:43:12;19.38;;;8.95;;
789;SDS011;378;48.844;9.156;2023-01-24T12:45:44;14.93;;;8.63;;
789;SDS011;378;48.844;9.156;2023-01-24T12:48:19;16.92;;;7.85;;
789;SDS011;378;48.844;9.156;2023-01-24T12:50:52;20.40;;;8.43;;
789;SDS011;378;48.844;9.156;2023-01-24T12:53:25;16.77;;;8.60;;
789;SDS011;378;48.844;9.156;2023-01-24T12:55:56;15.95;;;8.02;;
789;SDS011;378;48.844;9.156;2023-01-24T12:58:27;17.42;;;8.10;;
789;SDS011;378;48.844;9.156;2023-01-24T13:01:02;16.63;;;8.52;;
789;SDS011;378;48.844;9.156;2023-01-24T13:03:46;15.38;;;7.57;;
789;SDS011;378;48.844;9.156;2023-01-24T13:06:22;17.73;;;8.02;;
789;SDS011;378;48.844;9.156;2023-01-24T13:09:00;18.17;;;8.48;;
789;SDS011;378;48.844;9.156;2023-01-24T13:11:37;16.95;;;8.45;;
789;SDS011;378;48.844;9.156;2023-01-24T13:14:13;17.70;;;7.13;;
789;SDS011;378;48.844;9.156;2023-01-24T13:16:48;14.02;;;8.02;;
789;SDS011;378;48.844;9.156;2023-01-24T13:19:39;15.18;;;8.25;;
789;SDS011;378;48.844;9.156;2023-01-24T13:25:18;19.52;;;8.05;;
789;SDS011;378;48.844;9.156;2023-01-24T13:28:02;12.65;;;6.90;;
789;SDS011;378;48.844;9.156;2023-01-24T13:30:36;19.77;;;9.18;;
789;SDS011;378;48.844;9.156;2023-01-24T13:33:13;16.60;;;8.37;;
789;SDS011;378;48.844;9.156;2023-01-24T13:35:46;23.33;;;7.95;;
789;SDS011;378;48.844;9.156;2023-01-24T13:38:18;16.80;;;8.03;;
789;SDS011;378;48.844;9.156;2023-01-24T13:40:55;14.00;;;7.53;;
789;SDS011;378;48.844;9.156;2023-01-24T13:49:43;20.87;;;8.03;;
789;SDS011;378;48.844;9.156;2023-01-24T13:58:23;18.40;;;7.63;;
789;SDS011;378;48.844;9.156;2023-01-24T14:00:52;16.20;;;8.00;;
789;SDS011;378;48.844;9.156;2023-01-24T14:03:22;16.20;;;7.53;;
789;SDS011;378;48.844;9.156;2023-01-24T14:06:07;18.95;;;8.40;;
789;SDS011;378;48.844;9.156;2023-01-24T14:08:40;16.90;;;7.70;;
789;SDS011;378;48.844;9.156;2023-01-24T14:11:16;14.90;;;7.80;;
789;SDS011;378;48.844;9.156;2023-01-24T14:13:54;17.70;;;7.93;;
789;SDS011;378;48.844;9.156;2023-01-24T14:19:26;16.90;;;8.17;;
789;SDS011;378;48.844;9.156;2023-01-24T14:21:56;24.47;;;8.80;;
789;SDS011;378;48.844;9.156;2023-01-24T14:24:30;18.07;;;8.57;;
789;SDS011;378;48.844;9.156;2023-01-24T14:27:00;15.67;;;7.93;;
789;SDS011;378;48.844;9.156;2023-01-24T14:29:38;16.80;;;8.10;;
789;SDS011;378;48.844;9.156;2023-01-24T14:32:14;13.90;;;7.53;;
789;SDS011;378;48.844;9.156;2023-01-24T14:34:47;16.67;;;8.23;;
789;SDS011;378;48.844;9.156;2023-01-24T14:37:19;17.40;;;8.90;;
789;SDS011;378;48.844;9.156;2023-01-24T14:39:46;17.03;;;8.13;;
789;SDS011;378;48.844;9.156;2023-01-24T14:42:13;16.03;;;8.20;;
789;SDS011;378;48.844;9.156;2023-01-24T14:44:49;17.37;;;8.60;;
789;SDS011;378;48.844;9.156;2023-01-24T14:47:20;22.77;;;9.35;;
789;SDS011;378;48.844;9.156;2023-01-24T14:49:49;24.27;;;9.27;;
789;SDS011;378;48.844;9.156;2023-01-24T14:52:18;16.10;;;8.15;;
789;SDS011;378;48.844;9.156;2023-01-24T14:54:48;16.87;;;9.10;;
789;SDS011;378;48.844;9.156;2023-01-24T14:57:20;19.80;;;9.07;;
789;SDS011;378;48.844;9.156;2023-01-24T15:00:00;17.55;;;9.23;;
789;SDS011;378;48.844;9.156;2023-01-24T15:02:28;24.50;;;8.90;;
789;SDS011;378;48.844;9.156;2023-01-24T15:04:55;16.73;;;8.43;;
789;SDS011;378;48.844;9.156;2023-01-24T15:07:22;18.88;;;8.90;;
789;SDS011;378;48.844;9.156;2023-01-24T15:09:49;20.40;;;9.15;;
789;SDS011;378;48.844;9.156;2023-01-24T15:12:24;22.30;;;10.57;;
789;SDS011;378;48.844;9.156;2023-01-24T15:14:54;21.10;;;10.30;;
789;SDS011;378;48.844;9.156;2023-01-24T15:17:24;18.88;;;9.73;;
789;SDS011;378;48.844;9.156;2023-01-24T15:19:53;18.93;;;9.23;;
789;SDS011;378;48.844;9.156;2023-01-24T15:22:23;19.80;;;9.67;;
789;SDS011;378;48.844;9.156;2023-01-24T15:24:52;18.92;;;9.32;;
789;SDS011;378;48.844;9.156;2023-01-24T15:27:32;22.30;;;9.33;;
789;SDS011;378;48.844;9.156;2023-01-24T15:30:16;19.73;;;9.73;;
789;SDS011;378;48.844;9.156;2023-01-24T15:32:45;20.20;;;9.97;;
789;SDS011;378;48.844;9.156;2023-01-24T15:35:16;22.25;;;10.63;;
789;SDS011;378;48.844;9.156;2023-01-24T15:37:46;19.73;;;10.23;;
789;SDS011;378;48.844;9.156;2023-01-24T15:40:24;18.10;;;9.07;;
789;SDS011;378;48.844;9.156;2023-01-24T15:42:51;23.03;;;10.10;;
789;SDS011;378;48.844;9.156;2023-01-24T15:45:37;19.10;;;9.87;;
789;SDS011;378;48.844;9.156;2023-01-24T15:48:09;18.70;;;9.90;;
789;SDS011;378;48.844;9.156;2023-01-24T15:50:37;22.33;;;9.70;;
789;SDS011;378;48.844;9.156;2023-01-24T15:53:35;23.23;;;10.47;;
789;SDS011;378;48.844;9.156;2023-01-24T15:56:03;20.67;;;9.53;;
789;SDS011;378;48.844;9.156;2023-01-24T15:58:32;23.33;;;10.83;;
789;SDS011;378;48.844;9.156;2023-01-24T16:01:00;28.03;;;10.97;;
789;SDS011;378;48.844;9.156;2023-01-24T16:03:29;21.13;;;10.00;;
789;SDS011;378;48.844;9.156;2023-01-24T16:05:56;19.30;;;9.43;;
789;SDS011;378;48.844;9.156;2023-01-24T16:08:23;22.30;;;10.75;;
789;SDS011;378;48.844;9.156;2023-01-24T16:10:51;20.13;;;9.90;;
789;SDS011;378;48.844;9.156;2023-01-24T16:13:31;21.60;;;10.37;;
789;SDS011;378;48.844;9.156;2023-01-24T16:16:03;26.43;;;11.07;;